This is the latest recevied weather packets stored in our database for station/object W1NHD. If no packets are shown the sender has not sent any weather packets the latest 10 day(s).
| Time | Temp. | Humidity | Pressure | Rain* | Wind** | Luminosity | Snow |
|---|---|---|---|---|---|---|---|
| 1777173916 | 6.67° C | 75% | 1018.2 hPa | 0 mm | - | - | - |
| 1777172717 | 6.67° C | 72% | 1018.2 hPa | 0 mm | - | - | - |
| 1777169116 | 6.67° C | 68% | 1018.7 hPa | 0 mm | - | - | - |
| 1777168516 | 6.67° C | 70% | 1018.6 hPa | 0 mm | - | - | - |
| 1777166736 | 6.67° C | 72% | 1018.4 hPa | 0 mm | - | - | - |
| 1777166116 | 6.67° C | 73% | 1018.4 hPa | 0 mm | - | - | - |
| 1777165516 | 6.67° C | 72% | 1018.4 hPa | 0 mm | - | - | - |
| 1777164916 | 6.67° C | 73% | 1018.4 hPa | 0 mm | - | - | - |
| 1777161316 | 7.22° C | 71% | 1018 hPa | 0 mm | - | - | - |
| 1777158938 | 7.22° C | 68% | 1017.6 hPa | 0 mm | - | - | - |
| 1777151119 | 8.33° C | 50% | 1017.3 hPa | 0 mm | - | - | - |
| 1777149937 | 8.89° C | 49% | 1017.5 hPa | 0 mm | - | - | - |
| 1777147518 | 8.89° C | 53% | 1017.5 hPa | 0 mm | - | - | - |
| 1777142119 | 10° C | 51% | 1017.5 hPa | 0 mm | - | - | - |
| 1777140918 | 10° C | 47% | 1017.6 hPa | 0 mm | - | - | - |
| 1777140318 | 10° C | 47% | 1017.8 hPa | 0 mm | - | - | - |
| 1777139717 | 9.44° C | 47% | 1017.8 hPa | 0 mm | - | - | - |
| 1777136118 | 9.44° C | 46% | 1018.5 hPa | 0 mm | - | - | - |
| 1777128317 | 8.89° C | 60% | 1018.9 hPa | 0 mm | - | - | - |
| 1777127717 | 8.33° C | 59% | 1018.9 hPa | 0 mm | - | - | - |
| 1777124717 | 7.78° C | 63% | 1018.9 hPa | 0 mm | - | - | - |
| 1777124117 | 7.78° C | 62% | 1019.1 hPa | 0 mm | - | - | - |
| 1777122917 | 7.78° C | 63% | 1019 hPa | 0 mm | - | - | - |
| 1777122318 | 7.78° C | 64% | 1019 hPa | 0 mm | - | - | - |
| 1777121117 | 7.22° C | 69% | 1019.2 hPa | 0 mm | - | - | - |
* Rain latest hour (hover to see other rain measurements)
** Current wind speed in m/s (hover to see current wind gust speed)